Time;durP1;ratioP1;P1;durP2;ratioP2;P2;SDS_P1;SDS_P2;PMS_P1;PMS_P2;Temp;Humidity;BMP_temperature;BMP_pressure;BME280_temperature;BME280_humidity;BME280_pressure;Samples;Min_cycle;Max_cycle;Signal;HPM_P1;HPM_P2
2022/03/15 00:01:13;;;;;;;;;;;;;;;2.51;65.06;101493.25;5018963;28;20012;-66
2022/03/15 00:03:57;;;;;;;;;;;;;;;2.43;65.83;101499.00;5000167;28;20173;-66
2022/03/15 00:06:42;;;;;;;;;;;;;;;2.11;66.40;101468.03;5011664;28;19929;-69
2022/03/15 00:09:26;;;;;;;;;;;;;;;2.30;66.55;101501.97;5026475;28;19986;-65
2022/03/15 00:12:13;;;;;;;;;;;;;;;2.25;67.83;101507.00;5024013;28;19927;-64
2022/03/15 00:14:57;;;;;;;;;;;;;;;2.10;66.86;101518.59;4994167;28;20254;-64
2022/03/15 00:17:43;;;;;;;;;;;;;;;2.10;68.14;101510.72;5003681;28;20042;-63
2022/03/15 00:20:28;;;;;;;;;;;;;;;2.07;68.65;101523.69;5017552;28;19928;-64
2022/03/15 00:23:12;;;;;;;;;;;;;;;1.96;68.61;101514.47;5020110;28;19928;-64
2022/03/15 00:25:57;;;;;;;;;;;;;;;1.94;68.13;101524.00;5000651;28;20573;-70
2022/03/15 00:28:42;;;;;;;;;;;;;;;1.91;67.08;101524.78;4991346;28;20456;-63
2022/03/15 00:31:27;;;;;;;;;;;;;;;1.64;66.80;101527.91;5013011;28;20381;-63
2022/03/15 00:34:11;;;;;;;;;;;;;;;1.55;67.25;101527.53;5019650;28;19928;-64
2022/03/15 00:36:56;;;;;;;;;;;;;;;1.59;67.12;101517.28;5004940;28;19928;-64
2022/03/15 00:39:41;;;;;;;;;;;;;;;1.58;66.73;101531.16;5001964;28;20043;-63
2022/03/15 00:42:25;;;;;;;;;;;;;;;1.46;65.38;101533.22;5011407;28;20430;-63
2022/03/15 00:45:10;;;;;;;;;;;;;;;1.47;66.24;101537.66;5027851;28;19971;-70
2022/03/15 00:47:55;;;;;;;;;;;;;;;1.50;65.41;101542.13;5029229;28;19928;-65
2022/03/15 00:50:41;;;;;;;;;;;;;;;1.46;65.02;101550.66;4997318;28;19953;-64
2022/03/15 00:53:26;;;;;;;;;;;;;;;1.44;64.36;101544.44;5029599;28;19971;-64
2022/03/15 00:56:11;;;;;;;;;;;;;;;1.45;64.40;101548.84;5029270;28;19978;-64
2022/03/15 00:58:55;;;;;;;;;;;;;;;1.46;64.47;101548.03;5029435;28;19932;-64
2022/03/15 01:01:40;;;;;;;;;;;;;;;1.42;64.29;101552.22;5012621;28;19943;-65
2022/03/15 01:04:27;;;;;;;;;;;;;;;1.39;64.49;101552.09;5010291;28;19971;-70
2022/03/15 01:07:12;;;;;;;;;;;;;;;1.36;64.90;101556.28;5010831;28;19932;-64
2022/03/15 01:09:56;;;;;;;;;;;;;;;1.41;64.65;101560.88;4995610;28;19944;-63
2022/03/15 01:12:41;;;;;;;;;;;;;;;1.37;64.28;101560.66;5010812;28;19939;-64
2022/03/15 01:15:26;;;;;;;;;;;;;;;1.34;64.20;101565.78;5025922;28;20540;-65
2022/03/15 01:18:13;;;;;;;;;;;;;;;1.24;64.21;101559.25;5012296;28;19944;-65
2022/03/15 01:20:57;;;;;;;;;;;;;;;1.25;65.78;101568.84;4997892;28;20349;-65
2022/03/15 01:23:42;;;;;;;;;;;;;;;1.22;64.98;101566.09;5026302;28;20339;-70
2022/03/15 01:26:27;;;;;;;;;;;;;;;1.21;66.84;101569.53;5028861;28;20299;-64
2022/03/15 01:29:11;;;;;;;;;;;;;;;1.14;65.60;101566.59;5025311;28;19928;-64
2022/03/15 01:31:56;;;;;;;;;;;;;;;1.08;65.30;101579.34;5013688;28;20391;-64
2022/03/15 01:34:41;;;;;;;;;;;;;;;0.98;66.86;101580.63;5011439;28;20478;-64
2022/03/15 01:37:25;;;;;;;;;;;;;;;0.92;68.53;101582.97;5013695;28;19948;-63
2022/03/15 01:40:10;;;;;;;;;;;;;;;0.99;69.19;101585.03;5031561;28;20445;-66
2022/03/15 01:42:56;;;;;;;;;;;;;;;0.75;68.70;101546.47;5014355;28;19939;-69
2022/03/15 01:45:40;;;;;;;;;;;;;;;0.92;68.54;101595.13;5032302;28;19970;-63
2022/03/15 01:48:26;;;;;;;;;;;;;;;0.80;68.99;101592.84;5028268;28;19925;-64
2022/03/15 01:51:13;;;;;;;;;;;;;;;0.79;70.03;101600.59;5032204;28;20395;-65
2022/03/15 01:53:58;;;;;;;;;;;;;;;0.71;70.44;101612.41;5033377;28;20466;-63
2022/03/15 01:56:43;;;;;;;;;;;;;;;0.77;72.04;101610.97;4987789;28;19971;-64
2022/03/15 01:59:31;;;;;;;;;;;;;;;0.79;71.96;101613.66;4988204;28;19967;-64
2022/03/15 02:02:15;;;;;;;;;;;;;;;0.78;71.97;101614.47;5000264;28;20374;-63
2022/03/15 02:05:01;;;;;;;;;;;;;;;0.77;72.66;101623.13;5016761;28;20019;-63
2022/03/15 02:07:47;;;;;;;;;;;;;;;0.79;72.27;101624.97;5029006;28;20277;-63
2022/03/15 02:10:31;;;;;;;;;;;;;;;0.77;71.61;101631.84;5030335;28;19966;-64
2022/03/15 02:13:16;;;;;;;;;;;;;;;0.67;72.67;101633.94;5031345;28;19983;-62
2022/03/15 02:16:00;;;;;;;;;;;;;;;0.66;72.75;101635.66;5029065;28;19975;-71
2022/03/15 02:18:45;;;;;;;;;;;;;;;0.52;71.98;101641.91;5032400;28;19951;-63
2022/03/15 02:21:30;;;;;;;;;;;;;;;0.43;74.05;101637.97;5030130;28;19986;-64
2022/03/15 02:24:15;;;;;;;;;;;;;;;0.46;73.81;101643.31;5031691;28;19974;-63
2022/03/15 02:26:59;;;;;;;;;;;;;;;0.52;74.39;101643.63;5013837;28;20408;-63
2022/03/15 02:29:44;;;;;;;;;;;;;;;0.53;74.05;101643.72;5031751;28;20448;-66
2022/03/15 02:32:28;;;;;;;;;;;;;;;0.49;72.99;101639.16;5030043;28;19928;-65
2022/03/15 02:35:13;;;;;;;;;;;;;;;0.46;74.06;101651.13;5031187;28;19936;-64
2022/03/15 02:37:58;;;;;;;;;;;;;;;0.43;75.13;101645.78;5017244;28;19963;-66
2022/03/15 02:40:42;;;;;;;;;;;;;;;0.42;75.52;101650.09;5028508;28;19927;-72
2022/03/15 02:43:27;;;;;;;;;;;;;;;0.42;73.72;101650.09;5014527;28;19983;-63
2022/03/15 02:46:11;;;;;;;;;;;;;;;0.36;74.52;101651.50;5026454;28;19974;-64
2022/03/15 02:48:59;;;;;;;;;;;;;;;0.36;75.83;101656.72;4985193;28;19946;-63
2022/03/15 02:51:43;;;;;;;;;;;;;;;0.35;75.85;101665.38;5029316;28;20404;-66
2022/03/15 02:54:29;;;;;;;;;;;;;;;0.31;75.67;101650.38;5013951;28;19944;-67
2022/03/15 02:57:14;;;;;;;;;;;;;;;0.32;75.83;101666.13;5029608;28;19979;-63
2022/03/15 02:59:58;;;;;;;;;;;;;;;0.30;75.12;101662.53;5025897;28;19928;-69
2022/03/15 03:02:43;;;;;;;;;;;;;;;0.25;76.21;101666.63;5014526;28;20016;-64
2022/03/15 03:05:28;;;;;;;;;;;;;;;0.13;76.55;101666.88;5012518;28;19928;-62
2022/03/15 03:08:12;;;;;;;;;;;;;;;0.09;77.34;101671.88;5018981;28;19928;-63
2022/03/15 03:10:58;;;;;;;;;;;;;;;0.03;77.89;101681.97;5017606;28;20478;-63
2022/03/15 03:13:44;;;;;;;;;;;;;;;0.09;79.02;101674.47;5015302;28;19927;-64
2022/03/15 03:16:29;;;;;;;;;;;;;;;0.19;78.23;101673.25;5000375;28;19928;-63
2022/03/15 03:19:13;;;;;;;;;;;;;;;0.27;78.19;101671.91;5027726;28;19971;-64
2022/03/15 03:21:59;;;;;;;;;;;;;;;0.30;77.02;101672.97;5030651;28;19928;-63
2022/03/15 03:24:44;;;;;;;;;;;;;;;0.15;77.21;101680.00;5012077;28;19939;-66
2022/03/15 03:27:29;;;;;;;;;;;;;;;0.13;76.93;101679.91;5027338;28;19967;-64
2022/03/15 03:30:14;;;;;;;;;;;;;;;0.13;76.97;101685.94;5031103;28;19943;-64
2022/03/15 03:32:58;;;;;;;;;;;;;;;0.17;78.01;101685.28;4986147;28;19928;-65
2022/03/15 03:35:43;;;;;;;;;;;;;;;0.21;76.70;101695.97;5031023;28;19975;-64
2022/03/15 03:38:27;;;;;;;;;;;;;;;0.12;77.38;101698.13;5011576;28;19952;-69
2022/03/15 03:41:11;;;;;;;;;;;;;;;0.13;76.29;101693.78;5013333;28;19948;-64
2022/03/15 03:43:57;;;;;;;;;;;;;;;0.03;76.78;101699.34;5026612;28;19983;-64
2022/03/15 03:46:42;;;;;;;;;;;;;;;0.13;76.88;101707.72;5014645;28;19927;-65
2022/03/15 03:49:27;;;;;;;;;;;;;;;0.17;76.98;101711.38;5013070;28;20024;-66
2022/03/15 03:52:12;;;;;;;;;;;;;;;0.13;75.83;101710.34;4985585;28;20015;-63
2022/03/15 03:54:56;;;;;;;;;;;;;;;0.15;76.45;101710.41;5014885;28;19928;-63
2022/03/15 03:57:41;;;;;;;;;;;;;;;0.10;75.84;101715.38;5012074;28;20305;-71
2022/03/15 04:00:26;;;;;;;;;;;;;;;0.09;75.96;101722.28;5027749;28;19931;-64
2022/03/15 04:03:17;;;;;;;;;;;;;;;0.11;76.48;101717.16;5010643;28;19928;-64
2022/03/15 04:06:04;;;;;;;;;;;;;;;0.14;76.13;101717.34;5012979;28;19928;-64
2022/03/15 04:08:49;;;;;;;;;;;;;;;0.23;75.37;101729.97;4975625;28;19971;-64
2022/03/15 04:11:34;;;;;;;;;;;;;;;0.25;75.17;101734.44;5006495;28;20404;-72
2022/03/15 04:14:18;;;;;;;;;;;;;;;0.19;74.53;101728.03;5010314;28;19955;-65
2022/03/15 04:17:04;;;;;;;;;;;;;;;-0.02;74.33;101736.50;5006199;28;19975;-65
2022/03/15 04:19:48;;;;;;;;;;;;;;;0.06;76.22;101744.72;4979286;28;19932;-63
2022/03/15 04:22:33;;;;;;;;;;;;;;;0.15;74.97;101742.59;5010744;28;19928;-64
2022/03/15 04:25:19;;;;;;;;;;;;;;;0.14;75.11;101743.41;5007570;28;19928;-66
2022/03/15 04:28:04;;;;;;;;;;;;;;;0.08;74.95;101750.03;4993454;28;19976;-65
2022/03/15 04:30:48;;;;;;;;;;;;;;;0.03;74.76;101744.56;5006190;28;20047;-73
2022/03/15 04:33:33;;;;;;;;;;;;;;;0.11;74.56;101750.19;5009693;28;19928;-65
2022/03/15 04:36:17;;;;;;;;;;;;;;;0.11;74.21;101750.19;5006041;28;20413;-64
2022/03/15 04:39:05;;;;;;;;;;;;;;;0.14;74.32;101753.84;4993671;28;19928;-63
2022/03/15 04:41:50;;;;;;;;;;;;;;;0.16;74.60;101761.75;5007241;28;19932;-65
2022/03/15 04:44:35;;;;;;;;;;;;;;;0.26;74.52;101758.78;4993565;28;19928;-65
2022/03/15 04:47:19;;;;;;;;;;;;;;;0.30;73.22;101753.84;4994770;28;19928;-66
2022/03/15 04:50:05;;;;;;;;;;;;;;;0.32;73.12;101754.81;4991026;28;19929;-72
2022/03/15 04:52:50;;;;;;;;;;;;;;;0.28;72.40;101763.31;4992947;28;19955;-65
2022/03/15 04:55:35;;;;;;;;;;;;;;;0.33;72.33;101759.22;5005265;28;19928;-63
2022/03/15 04:58:20;;;;;;;;;;;;;;;0.32;70.87;101759.13;5009114;28;19931;-64
2022/03/15 05:01:05;;;;;;;;;;;;;;;0.32;73.17;101764.34;5007051;28;19931;-65
2022/03/15 05:03:49;;;;;;;;;;;;;;;0.36;71.95;101761.09;4992958;28;20396;-64
2022/03/15 05:06:34;;;;;;;;;;;;;;;0.34;71.42;101754.88;5010556;28;19944;-63
2022/03/15 05:09:18;;;;;;;;;;;;;;;0.37;72.28;101773.31;5007275;28;19928;-71
2022/03/15 05:12:05;;;;;;;;;;;;;;;0.35;71.45;101767.13;5007472;28;20289;-64
2022/03/15 05:14:50;;;;;;;;;;;;;;;0.45;72.00;101772.00;5007033;28;19967;-65
2022/03/15 05:17:36;;;;;;;;;;;;;;;0.53;72.40;101775.91;5011532;28;19936;-64
2022/03/15 05:20:21;;;;;;;;;;;;;;;0.52;70.89;101779.31;4969025;28;20089;-64
2022/03/15 05:23:05;;;;;;;;;;;;;;;0.62;70.89;101785.09;5012153;28;19975;-64
2022/03/15 05:25:49;;;;;;;;;;;;;;;0.65;70.10;101784.34;4997798;28;19929;-66
2022/03/15 05:28:34;;;;;;;;;;;;;;;0.69;70.61;101789.81;5009261;28;19948;-71
2022/03/15 05:31:19;;;;;;;;;;;;;;;0.73;70.89;101785.63;5010796;28;20336;-64
2022/03/15 05:34:07;;;;;;;;;;;;;;;0.87;70.16;101789.88;4994853;28;19929;-65
2022/03/15 05:36:52;;;;;;;;;;;;;;;0.90;68.76;101803.09;5010294;28;19991;-63
2022/03/15 05:39:37;;;;;;;;;;;;;;;0.78;68.45;101792.91;4982500;28;19987;-64
2022/03/15 05:42:21;;;;;;;;;;;;;;;0.77;70.50;101798.03;4995578;28;20414;-68
2022/03/15 05:45:06;;;;;;;;;;;;;;;0.81;71.10;101798.28;4982574;28;19940;-65
2022/03/15 05:47:50;;;;;;;;;;;;;;;0.94;70.46;101807.66;5009124;28;20447;-66
2022/03/15 05:50:35;;;;;;;;;;;;;;;0.99;70.26;101811.38;5012473;28;19928;-65
2022/03/15 05:53:19;;;;;;;;;;;;;;;0.99;69.83;101812.25;4993631;28;19944;-65
2022/03/15 05:56:04;;;;;;;;;;;;;;;0.92;70.31;101809.25;5011618;28;19968;-65
2022/03/15 05:58:48;;;;;;;;;;;;;;;0.97;70.75;101819.13;4967935;28;19983;-65
2022/03/15 06:01:33;;;;;;;;;;;;;;;1.03;70.67;101826.38;5010338;28;19968;-64
2022/03/15 06:04:17;;;;;;;;;;;;;;;1.00;69.94;101815.78;4995512;28;19928;-63
2022/03/15 06:07:02;;;;;;;;;;;;;;;1.11;70.42;101818.09;5008939;28;19928;-70
2022/03/15 06:09:46;;;;;;;;;;;;;;;1.22;69.53;101813.44;4997712;28;19973;-65
2022/03/15 06:12:31;;;;;;;;;;;;;;;1.22;69.24;101814.31;5007253;28;19928;-64
2022/03/15 06:15:15;;;;;;;;;;;;;;;1.22;68.63;101814.31;5011974;28;19928;-64
2022/03/15 06:18:01;;;;;;;;;;;;;;;1.23;68.94;101820.44;5009799;28;20008;-65
2022/03/15 06:20:46;;;;;;;;;;;;;;;1.26;69.11;101824.09;4995228;28;19952;-65
2022/03/15 06:23:31;;;;;;;;;;;;;;;1.28;69.13;101837.22;5010111;28;19944;-65
2022/03/15 06:26:18;;;;;;;;;;;;;;;1.26;70.69;101829.31;5008648;28;20368;-75
2022/03/15 06:29:03;;;;;;;;;;;;;;;1.27;69.22;101830.22;4996764;28;19928;-65
2022/03/15 06:31:48;;;;;;;;;;;;;;;1.36;69.38;101820.22;4993227;28;19948;-63
2022/03/15 06:34:32;;;;;;;;;;;;;;;1.38;69.61;101824.69;5012327;28;20015;-64
2022/03/15 06:37:17;;;;;;;;;;;;;;;1.42;69.82;101833.59;5012993;28;20063;-64
2022/03/15 06:40:03;;;;;;;;;;;;;;;1.47;69.56;101819.94;4995737;28;20290;-65
2022/03/15 06:42:47;;;;;;;;;;;;;;;1.67;69.07;101828.72;5010076;28;19928;-66
2022/03/15 06:45:32;;;;;;;;;;;;;;;1.71;68.71;101826.34;5021947;28;20348;-72
2022/03/15 06:48:16;;;;;;;;;;;;;;;1.70;69.05;101828.88;5014686;28;19932;-63
2022/03/15 06:51:02;;;;;;;;;;;;;;;1.69;68.63;101830.59;5008168;28;19968;-60
2022/03/15 06:53:47;;;;;;;;;;;;;;;1.70;68.95;101831.50;4966918;28;19928;-65
2022/03/15 06:56:37;;;;;;;;;;;;;;;1.84;69.42;101839.19;4996318;28;20047;-64
2022/03/15 06:59:22;;;;;;;;;;;;;;;1.98;68.07;101839.81;4987580;28;19971;-73
2022/03/15 07:02:07;;;;;;;;;;;;;;;1.81;67.86;101840.72;5019561;28;19931;-66
2022/03/15 07:04:51;;;;;;;;;;;;;;;1.77;68.49;101837.09;5001778;28;20431;-63
2022/03/15 07:07:36;;;;;;;;;;;;;;;1.71;69.41;101842.03;5021259;28;19943;-64
2022/03/15 07:10:21;;;;;;;;;;;;;;;1.78;70.41;101838.88;4990496;28;19928;-63
2022/03/15 07:13:05;;;;;;;;;;;;;;;1.89;69.86;101844.59;5001278;28;20356;-65
2022/03/15 07:15:49;;;;;;;;;;;;;;;2.03;69.02;101835.69;5004695;28;19979;-66
2022/03/15 07:18:34;;;;;;;;;;;;;;;1.97;69.55;101843.28;5020397;28;19959;-65
2022/03/15 07:21:19;;;;;;;;;;;;;;;1.99;69.53;101833.75;5022216;28;19944;-64
2022/03/15 07:24:03;;;;;;;;;;;;;;;2.02;69.87;101829.56;4970816;28;19932;-72
2022/03/15 07:26:48;;;;;;;;;;;;;;;2.23;69.99;101832.28;5001405;28;19928;-66
2022/03/15 07:29:32;;;;;;;;;;;;;;;2.44;68.45;101823.69;5001993;28;19976;-66
2022/03/15 07:32:17;;;;;;;;;;;;;;;2.88;68.05;101833.50;5005894;28;20746;-67
2022/03/15 07:35:01;;;;;;;;;;;;;;;4.12;64.75;101833.44;4990365;28;19936;-65
2022/03/15 07:37:51;;;;;;;;;;;;;;;5.96;58.57;101830.38;4997513;28;20427;-65
2022/03/15 07:40:35;;;;;;;;;;;;;;;7.99;49.79;101836.03;4974032;28;19927;-65
2022/03/15 07:43:23;;;;;;;;;;;;;;;9.33;44.97;101835.34;4999505;28;19970;-64
2022/03/15 07:46:07;;;;;;;;;;;;;;;9.54;41.27;101826.88;4975761;28;19968;-65
2022/03/15 07:48:53;;;;;;;;;;;;;;;9.66;40.42;101831.50;5019915;28;19944;-64
2022/03/15 07:51:38;;;;;;;;;;;;;;;10.93;37.57;101838.66;5024066;28;19932;-64
2022/03/15 07:54:22;;;;;;;;;;;;;;;12.08;36.21;101836.22;5004521;28;19929;-67
2022/03/15 07:57:07;;;;;;;;;;;;;;;12.85;34.57;101812.63;5004726;28;20454;-72
2022/03/15 07:59:52;;;;;;;;;;;;;;;13.66;31.02;101832.34;5002211;28;20396;-66
2022/03/15 08:02:36;;;;;;;;;;;;;;;14.38;29.41;101843.88;4987049;28;19948;-66
2022/03/15 08:05:21;;;;;;;;;;;;;;;15.35;28.92;101840.78;4993458;28;20361;-66
2022/03/15 08:08:07;;;;;;;;;;;;;;;16.05;27.87;101839.34;4973165;28;20320;-66
2022/03/15 08:10:52;;;;;;;;;;;;;;;17.19;24.14;101842.50;4997750;28;19931;-67
2022/03/15 08:13:36;;;;;;;;;;;;;;;17.97;24.64;101842.16;4995452;28;20039;-66
2022/03/15 08:16:24;;;;;;;;;;;;;;;18.06;25.09;101841.13;5028260;28;19943;-69
2022/03/15 08:19:09;;;;;;;;;;;;;;;18.77;22.47;101842.47;5012479;28;19944;-66
2022/03/15 08:21:53;;;;;;;;;;;;;;;19.78;21.98;101851.88;5002887;28;19928;-65
2022/03/15 08:24:37;;;;;;;;;;;;;;;20.05;22.26;101849.34;5014515;28;19936;-65
2022/03/15 08:27:22;;;;;;;;;;;;;;;20.29;22.62;101846.06;5026270;28;19928;-67
2022/03/15 08:30:07;;;;;;;;;;;;;;;20.80;19.16;101838.31;5012372;28;20312;-65
2022/03/15 08:32:51;;;;;;;;;;;;;;;21.22;19.07;101839.78;5015222;28;19923;-65
2022/03/15 08:35:36;;;;;;;;;;;;;;;22.33;17.92;101832.47;5027502;28;20408;-73
2022/03/15 08:38:20;;;;;;;;;;;;;;;22.23;18.96;101841.88;5029891;28;19928;-65
2022/03/15 08:41:05;;;;;;;;;;;;;;;22.98;16.59;101834.56;5003971;28;20012;-64
2022/03/15 08:43:50;;;;;;;;;;;;;;;23.61;16.98;101833.91;5028090;28;19928;-65
2022/03/15 08:46:34;;;;;;;;;;;;;;;24.05;15.50;101850.09;5025837;28;20427;-67
2022/03/15 08:49:21;;;;;;;;;;;;;;;24.77;15.22;101841.47;5031029;28;19971;-67
2022/03/15 08:52:08;;;;;;;;;;;;;;;25.36;15.11;101846.88;5008452;28;19929;-66
2022/03/15 08:54:52;;;;;;;;;;;;;;;25.11;15.20;101849.84;4988316;28;19928;-71
2022/03/15 08:57:37;;;;;;;;;;;;;;;25.12;14.44;101848.03;5002806;28;19978;-65
2022/03/15 09:00:22;;;;;;;;;;;;;;;25.70;14.57;101839.72;5029119;28;19979;-66
2022/03/15 09:03:07;;;;;;;;;;;;;;;26.20;14.10;101848.09;5016717;28;20383;-67
2022/03/15 09:05:51;;;;;;;;;;;;;;;25.86;14.70;101848.88;5003497;28;19968;-66
2022/03/15 09:08:37;;;;;;;;;;;;;;;25.90;14.46;101847.78;5018558;28;20013;-65
2022/03/15 09:11:22;;;;;;;;;;;;;;;25.02;15.18;101835.81;5019096;28;19944;-72
2022/03/15 09:14:06;;;;;;;;;;;;;;;25.61;13.44;101842.91;4996366;28;20004;-73
2022/03/15 09:16:51;;;;;;;;;;;;;;;25.48;14.21;101830.00;5012697;28;19948;-66
2022/03/15 09:19:36;;;;;;;;;;;;;;;26.48;12.74;101836.63;4995591;28;19944;-68
2022/03/15 09:22:20;;;;;;;;;;;;;;;27.38;12.70;101848.94;5005864;28;19928;-67
2022/03/15 09:25:05;;;;;;;;;;;;;;;27.29;12.15;101848.56;5001376;28;20252;-68
2022/03/15 09:27:50;;;;;;;;;;;;;;;26.71;14.22;101836.34;5021649;28;19972;-69
2022/03/15 09:30:34;;;;;;;;;;;;;;;26.82;12.33;101848.41;4965613;28;19945;-77
2022/03/15 09:33:19;;;;;;;;;;;;;;;27.95;11.69;101841.97;4950252;28;19968;-71
2022/03/15 09:36:08;;;;;;;;;;;;;;;27.84;11.81;101847.22;5005100;28;19983;-66
2022/03/15 09:38:54;;;;;;;;;;;;;;;27.75;12.57;101845.84;5008523;28;20439;-67
2022/03/15 09:41:38;;;;;;;;;;;;;;;26.92;13.03;101844.22;4997517;28;19983;-66
2022/03/15 09:44:25;;;;;;;;;;;;;;;27.60;13.67;101843.13;5009078;28;19929;-68
2022/03/15 09:47:14;;;;;;;;;;;;;;;27.56;12.73;101836.97;5011359;28;20062;-70
2022/03/15 09:50:01;;;;;;;;;;;;;;;27.83;11.93;101842.69;4969057;28;20444;-68
2022/03/15 09:52:47;;;;;;;;;;;;;;;28.11;11.55;101840.97;4994820;28;19932;-68
2022/03/15 09:55:31;;;;;;;;;;;;;;;28.73;11.08;101850.84;5012112;28;20405;-70
2022/03/15 09:58:20;;;;;;;;;;;;;;;28.30;11.29;101852.56;4996128;28;19975;-68
2022/03/15 10:01:05;;;;;;;;;;;;;;;28.79;11.03;101844.97;5011287;28;19928;-68
2022/03/15 10:03:50;;;;;;;;;;;;;;;28.64;10.47;101848.69;5013325;28;19944;-70
2022/03/15 10:06:37;;;;;;;;;;;;;;;28.60;11.45;101847.97;5009842;28;19928;-66
2022/03/15 10:09:23;;;;;;;;;;;;;;;27.51;12.35;101847.25;4969110;28;20011;-67
2022/03/15 10:12:09;;;;;;;;;;;;;;;27.50;11.62;101853.69;5009762;28;19967;-70
2022/03/15 10:14:56;;;;;;;;;;;;;;;28.34;11.19;101839.59;4995891;28;19963;-67
2022/03/15 10:17:41;;;;;;;;;;;;;;;28.57;11.13;101850.94;5010605;28;20229;-68
2022/03/15 10:20:28;;;;;;;;;;;;;;;29.15;10.44;101842.72;4994946;28;20056;-72
2022/03/15 10:23:16;;;;;;;;;;;;;;;29.41;11.29;101840.06;4968758;28;19985;-68
2022/03/15 10:26:00;;;;;;;;;;;;;;;29.45;9.71;101841.59;4994632;28;20344;-67
2022/03/15 10:28:47;;;;;;;;;;;;;;;29.22;11.97;101842.22;5010873;28;20389;-67
2022/03/15 10:31:31;;;;;;;;;;;;;;;28.99;9.72;101844.63;5013223;28;20109;-67
2022/03/15 10:34:16;;;;;;;;;;;;;;;29.82;9.91;101831.00;5011132;28;19929;-70
2022/03/15 10:37:01;;;;;;;;;;;;;;;30.07;9.35;101844.78;5012572;28;19928;-67
2022/03/15 10:39:47;;;;;;;;;;;;;;;30.20;9.73;101845.72;5008835;28;20435;-68
2022/03/15 10:42:37;;;;;;;;;;;;;;;30.12;9.45;101846.22;4996441;28;19998;-69
2022/03/15 10:45:22;;;;;;;;;;;;;;;29.69;9.51;101832.81;4997685;28;20055;-71
2022/03/15 10:48:35;;;;;;;;;;;;;;;30.19;9.10;101833.03;4981072;28;19979;-68
2022/03/15 10:51:21;;;;;;;;;;;;;;;29.85;8.96;101831.66;4995275;28;20354;-68
2022/03/15 10:54:06;;;;;;;;;;;;;;;28.66;9.84;101827.59;5011881;28;19976;-69
2022/03/15 10:56:59;;;;;;;;;;;;;;;28.97;9.45;101820.16;4993754;28;20047;-68
2022/03/15 10:59:44;;;;;;;;;;;;;;;28.60;10.52;101828.88;4994835;28;19944;-68
2022/03/15 11:02:30;;;;;;;;;;;;;;;29.00;9.66;101828.16;4995539;28;20664;-69
2022/03/15 11:05:24;;;;;;;;;;;;;;;29.02;9.69;101814.41;4980922;28;19995;-69
2022/03/15 11:08:14;;;;;;;;;;;;;;;29.41;9.70;101815.44;4967497;28;20015;-69
2022/03/15 11:11:02;;;;;;;;;;;;;;;28.99;9.85;101817.31;4983008;28;20649;-68
2022/03/15 11:13:47;;;;;;;;;;;;;;;29.06;10.04;101822.31;4981971;28;19933;-69
2022/03/15 11:16:35;;;;;;;;;;;;;;;28.60;10.21;101819.81;4994451;28;19928;-68
2022/03/15 11:19:19;;;;;;;;;;;;;;;28.14;10.76;101816.25;5007294;28;20368;-69
2022/03/15 11:22:05;;;;;;;;;;;;;;;27.47;11.50;101807.50;4994748;28;19975;-67
2022/03/15 11:25:04;;;;;;;;;;;;;;;27.37;11.45;101816.31;4993544;28;19932;-66
2022/03/15 11:27:52;;;;;;;;;;;;;;;27.46;11.31;101802.16;5007601;28;19928;-69
2022/03/15 11:30:39;;;;;;;;;;;;;;;26.58;11.05;101810.72;4996048;28;20302;-68
2022/03/15 11:33:25;;;;;;;;;;;;;;;26.13;11.03;101810.38;4995789;28;20048;-66
2022/03/15 11:36:12;;;;;;;;;;;;;;;25.03;12.26;101803.16;4982628;28;19970;-67
2022/03/15 11:38:57;;;;;;;;;;;;;;;24.46;12.43;101794.97;5020502;28;20059;-66
2022/03/15 11:41:43;;;;;;;;;;;;;;;24.82;12.02;101800.56;5001189;28;20412;-68
2022/03/15 11:44:54;;;;;;;;;;;;;;;24.87;12.13;101798.50;5019961;28;19931;-66
2022/03/15 11:47:44;;;;;;;;;;;;;;;24.87;12.57;101793.97;5020678;28;19978;-67
2022/03/15 11:50:41;;;;;;;;;;;;;;;24.44;12.92;101798.69;4999388;28;20016;-66
2022/03/15 11:53:46;;;;;;;;;;;;;;;24.27;12.99;101787.69;5016680;28;19991;-71
2022/03/15 11:56:48;;;;;;;;;;;;;;;23.69;13.09;101773.03;5017075;28;19928;-67
2022/03/15 11:59:45;;;;;;;;;;;;;;;22.21;13.85;101778.84;5016935;28;19929;-66
2022/03/15 12:02:34;;;;;;;;;;;;;;;21.68;14.76;101770.75;5004754;28;20081;-69
2022/03/15 12:05:22;;;;;;;;;;;;;;;21.11;14.87;101774.47;4989985;28;20419;-67
2022/03/15 12:08:15;;;;;;;;;;;;;;;20.59;15.12;101772.44;5023177;28;19932;-67
2022/03/15 12:11:06;;;;;;;;;;;;;;;19.91;15.30;101777.91;4995425;28;19971;-69
2022/03/15 12:13:50;;;;;;;;;;;;;;;19.63;16.17;101771.47;4974122;28;20526;-68
2022/03/15 12:16:36;;;;;;;;;;;;;;;19.18;16.61;101775.25;4995296;28;19968;-67
2022/03/15 12:19:39;;;;;;;;;;;;;;;19.11;16.58;101773.63;4986557;28;19967;-69
2022/03/15 12:22:34;;;;;;;;;;;;;;;18.98;16.63;101770.31;4997294;28;19932;-67
2022/03/15 12:25:18;;;;;;;;;;;;;;;18.50;16.87;101771.38;4993323;28;19928;-70
2022/03/15 12:28:03;;;;;;;;;;;;;;;18.20;17.43;101771.06;5013466;28;20309;-69
2022/03/15 12:30:51;;;;;;;;;;;;;;;17.88;17.63;101761.81;5014495;28;19932;-72
2022/03/15 12:33:36;;;;;;;;;;;;;;;17.83;17.29;101754.75;5015574;28;19989;-69
2022/03/15 12:36:22;;;;;;;;;;;;;;;17.23;17.89;101761.09;5011104;28;19927;-69
2022/03/15 12:39:12;;;;;;;;;;;;;;;16.71;18.28;101765.44;5013452;28;19943;-68
2022/03/15 12:42:11;;;;;;;;;;;;;;;16.67;18.20;101761.94;5030391;28;19947;-67
2022/03/15 12:44:59;;;;;;;;;;;;;;;16.40;18.72;101758.66;4983948;28;20288;-69
2022/03/15 12:47:46;;;;;;;;;;;;;;;16.28;18.65;101758.81;5027721;28;19979;-69
2022/03/15 12:50:33;;;;;;;;;;;;;;;15.74;18.78;101764.75;5014159;28;19975;-66
2022/03/15 12:53:18;;;;;;;;;;;;;;;15.37;19.06;101763.25;4998607;28;20059;-71
2022/03/15 12:56:02;;;;;;;;;;;;;;;15.20;19.28;101759.81;5012670;28;19928;-68
2022/03/15 12:58:47;;;;;;;;;;;;;;;15.18;19.22;101769.59;5010766;28;19943;-67
2022/03/15 13:01:31;;;;;;;;;;;;;;;15.22;18.98;101766.91;5012621;28;19928;-68
2022/03/15 13:04:15;;;;;;;;;;;;;;;15.14;19.32;101759.81;5026781;28;19983;-68
2022/03/15 13:07:06;;;;;;;;;;;;;;;15.25;19.23;101760.66;5028937;28;19928;-68
2022/03/15 13:09:56;;;;;;;;;;;;;;;15.02;19.42;101760.81;4976475;28;19928;-67
2022/03/15 13:12:44;;;;;;;;;;;;;;;14.68;19.20;101759.22;4997846;28;20039;-70
2022/03/15 13:15:28;;;;;;;;;;;;;;;14.38;20.05;101755.78;5013248;28;19995;-68
2022/03/15 13:18:16;;;;;;;;;;;;;;;14.34;19.90;101759.38;5012855;28;20332;-68
2022/03/15 13:21:02;;;;;;;;;;;;;;;14.35;20.24;101761.16;5002973;28;20489;-64
2022/03/15 13:23:49;;;;;;;;;;;;;;;13.86;20.39;101757.69;5030252;28;20016;-66
2022/03/15 13:26:34;;;;;;;;;;;;;;;13.74;20.54;101763.06;4973549;28;19927;-66
2022/03/15 13:29:20;;;;;;;;;;;;;;;13.60;21.08;101763.06;5019902;28;19927;-65
2022/03/15 13:32:05;;;;;;;;;;;;;;;13.74;20.93;101763.91;4971409;28;19967;-65
2022/03/15 13:34:57;;;;;;;;;;;;;;;14.01;20.68;101759.44;4996712;28;20391;-64
2022/03/15 13:37:43;;;;;;;;;;;;;;;14.03;20.50;101763.88;5006861;28;19928;-66
2022/03/15 13:40:29;;;;;;;;;;;;;;;13.98;20.63;101769.22;5004327;28;19932;-66
2022/03/15 13:43:14;;;;;;;;;;;;;;;13.80;20.26;101734.59;4993245;28;19975;-69
2022/03/15 13:46:03;;;;;;;;;;;;;;;13.62;20.62;101771.06;4988641;28;19971;-65
2022/03/15 13:48:49;;;;;;;;;;;;;;;13.47;20.55;101753.28;5001068;28;19952;-67
2022/03/15 13:51:39;;;;;;;;;;;;;;;13.25;20.31;101759.50;4966825;28;19944;-65
2022/03/15 13:54:23;;;;;;;;;;;;;;;12.77;20.30;101755.81;5008277;28;20272;-67
2022/03/15 13:57:10;;;;;;;;;;;;;;;12.68;20.86;101763.78;4996380;28;20313;-66
2022/03/15 14:00:05;;;;;;;;;;;;;;;12.87;20.54;101762.94;5011219;28;20397;-65
2022/03/15 14:03:05;;;;;;;;;;;;;;;12.60;20.20;101758.44;4996975;28;19948;-66
2022/03/15 14:05:59;;;;;;;;;;;;;;;12.44;20.64;101761.94;4997881;28;19929;-67
2022/03/15 14:08:50;;;;;;;;;;;;;;;12.19;20.85;101753.84;4998591;28;19987;-66
2022/03/15 14:11:44;;;;;;;;;;;;;;;11.99;21.19;101763.47;5012990;28;19928;-66
2022/03/15 14:14:30;;;;;;;;;;;;;;;11.48;21.17;101755.97;5002751;28;19991;-70
2022/03/15 14:17:15;;;;;;;;;;;;;;;10.98;21.81;101751.09;5018705;28;19928;-67
2022/03/15 14:20:00;;;;;;;;;;;;;;;10.72;22.07;101752.59;5015148;28;20439;-66